Time;durP1;ratioP1;P1;durP2;ratioP2;P2;SDS_P1;SDS_P2;PMS_P1;PMS_P2;Temp;Humidity;BMP_temperature;BMP_pressure;BME280_temperature;BME280_humidity;BME280_pressure;Samples;Min_cycle;Max_cycle;Signal;HPM_P1;HPM_P2
2023/07/05 00:01:24;;;;;;;6.77;4.27;;;;;;;21.27;48.32;98295.69;7001957;28;20263;-84
2023/07/05 00:04:45;;;;;;;5.40;3.47;;;;;;;21.90;47.22;98333.84;7004273;28;20186;-85
2023/07/05 00:08:07;;;;;;;5.80;3.83;;;;;;;22.00;46.92;98318.09;7012667;28;20229;-84
2023/07/05 00:11:29;;;;;;;6.27;3.90;;;;;;;22.34;46.00;98323.47;7024858;28;20224;-83
2023/07/05 00:14:50;;;;;;;4.07;3.37;;;;;;;22.49;45.44;98306.88;7015757;28;20314;-85
2023/07/05 00:18:13;;;;;;;5.27;3.80;;;;;;;22.70;44.15;98287.06;7014053;28;20620;-85
2023/07/05 00:21:35;;;;;;;5.30;3.93;;;;;;;23.03;43.49;98254.97;7025155;28;20294;-85
2023/07/05 00:24:57;;;;;;;4.90;3.50;;;;;;;23.28;42.52;98285.69;7003096;28;20237;-84
2023/07/05 00:28:18;;;;;;;5.13;3.90;;;;;;;23.44;42.41;98283.50;7000176;28;20275;-85
2023/07/05 00:31:39;;;;;;;8.70;4.07;;;;;;;23.46;42.36;98271.09;7000684;28;20744;-84
2023/07/05 00:35:02;;;;;;;7.20;4.37;;;;;;;23.71;41.66;98286.38;7000609;28;20215;-85
2023/07/05 00:38:24;;;;;;;5.53;3.37;;;;;;;23.67;42.32;98274.31;6999709;28;20696;-84
2023/07/05 00:41:45;;;;;;;5.17;3.80;;;;;;;23.78;41.98;98281.28;7000128;28;20213;-83
2023/07/05 00:45:41;;;;;;;6.20;4.23;;;;;;;23.74;42.07;98264.56;6999842;28;20299;-85
2023/07/05 00:49:05;;;;;;;7.17;4.47;;;;;;;23.57;41.94;98274.47;6991600;28;20735;-85
2023/07/05 00:52:29;;;;;;;7.07;4.63;;;;;;;23.51;42.69;98276.53;6999019;28;20226;-85
2023/07/05 00:55:54;;;;;;;5.23;3.63;;;;;;;23.54;42.75;98270.41;6999163;28;20209;-84
2023/07/05 00:59:16;;;;;;;4.97;4.10;;;;;;;23.51;42.85;98272.94;6997808;28;20222;-85
2023/07/05 01:02:39;;;;;;;4.80;3.70;;;;;;;23.33;43.33;98269.13;6999432;28;20708;-85
2023/07/05 01:06:00;;;;;;;10.63;3.90;;;;;;;23.47;42.60;98234.19;6998529;28;20207;-85
2023/07/05 01:09:26;;;;;;;4.40;4.00;;;;;;;23.48;43.25;98244.09;6999495;28;20355;-84
2023/07/05 01:12:50;;;;;;;4.50;3.50;;;;;;;23.76;42.32;98237.53;6999418;28;20334;-83
2023/07/05 01:16:22;;;;;;;6.33;3.70;;;;;;;23.82;42.16;98227.22;6999194;28;20265;-84
2023/07/05 01:19:57;;;;;;;3.90;3.37;;;;;;;23.83;42.26;98237.13;6999787;28;20255;-84
2023/07/05 01:23:45;;;;;;;6.03;3.40;;;;;;;23.92;42.38;98230.66;6999711;28;20188;-84
2023/07/05 01:27:26;;;;;;;4.60;3.77;;;;;;;24.09;41.95;98238.31;6998520;28;20270;-83
2023/07/05 01:31:06;;;;;;;4.03;3.60;;;;;;;24.22;41.57;98241.06;6998675;28;20323;-83
2023/07/05 01:34:37;;;;;;;4.87;3.50;;;;;;;24.37;41.76;98240.75;6998840;28;20228;-84
2023/07/05 01:37:58;;;;;;;4.57;3.20;;;;;;;24.43;41.95;98239.50;6998163;28;20226;-84
2023/07/05 01:41:22;;;;;;;4.13;3.53;;;;;;;24.23;43.28;98237.19;6998590;28;20206;-83
2023/07/05 01:44:43;;;;;;;7.00;3.80;;;;;;;24.36;43.64;98228.09;6999105;28;20213;-84
2023/07/05 01:48:17;;;;;;;5.73;3.40;;;;;;;24.28;43.57;98230.75;6998074;28;20315;-84
2023/07/05 01:51:45;;;;;;;6.83;4.27;;;;;;;23.89;44.37;98234.00;6992393;28;20202;-84
2023/07/05 01:55:12;;;;;;;5.40;3.90;;;;;;;23.90;44.40;98235.63;6998428;28;20215;-83
2023/07/05 01:58:36;;;;;;;4.33;3.30;;;;;;;23.54;44.40;98198.84;6997679;28;20226;-84
2023/07/05 02:01:59;;;;;;;5.13;3.63;;;;;;;23.50;45.09;98233.59;6997731;28;20208;-84
2023/07/05 02:05:22;;;;;;;4.87;3.40;;;;;;;23.79;44.86;98230.59;6998439;28;20201;-84
2023/07/05 02:08:49;;;;;;;5.20;3.63;;;;;;;23.97;44.14;98243.50;6998299;28;20227;-84
2023/07/05 02:12:11;;;;;;;4.63;3.53;;;;;;;23.62;44.96;98242.19;6998689;28;20632;-83
2023/07/05 02:15:33;;;;;;;4.63;3.30;;;;;;;23.54;44.87;98240.13;6984163;28;20940;-84
2023/07/05 02:18:55;;;;;;;4.37;3.07;;;;;;;23.87;44.20;98251.91;6970752;28;20268;-83
2023/07/05 02:22:16;;;;;;;3.97;3.40;;;;;;;23.67;44.83;98257.81;6970787;28;20344;-84
2023/07/05 02:25:39;;;;;;;4.77;3.07;;;;;;;23.73;44.59;98243.63;6970334;28;20213;-84
2023/07/05 02:29:01;;;;;;;3.07;2.50;;;;;;;23.55;44.91;98274.78;6971028;28;20865;-83
2023/07/05 02:32:23;;;;;;;5.87;3.33;;;;;;;23.73;45.33;98273.09;6973610;28;20208;-84
2023/07/05 02:35:44;;;;;;;2.40;2.17;;;;;;;24.25;43.21;98279.00;6971463;28;20216;-84
2023/07/05 02:39:06;;;;;;;3.37;2.50;;;;;;;24.25;43.36;98275.47;6972897;28;20700;-83
2023/07/05 02:42:29;;;;;;;2.20;2.00;;;;;;;24.49;42.80;98279.63;6973024;28;20276;-83
2023/07/05 02:45:50;;;;;;;2.40;2.20;;;;;;;24.93;41.83;98298.28;6973414;28;20207;-83
2023/07/05 02:49:12;;;;;;;3.50;2.40;;;;;;;24.01;44.06;98308.69;6974326;28;20319;-83
2023/07/05 02:52:34;;;;;;;4.23;2.80;;;;;;;23.75;45.26;98314.91;6973440;28;20707;-83
2023/07/05 02:55:56;;;;;;;4.43;2.93;;;;;;;24.24;44.54;98313.19;6971806;28;20204;-84
2023/07/05 02:59:19;;;;;;;3.50;2.50;;;;;;;24.10;44.76;98304.13;6985761;28;20473;-83
2023/07/05 03:02:40;;;;;;;2.87;2.60;;;;;;;24.53;44.19;98305.47;7000547;28;20186;-84
2023/07/05 03:06:02;;;;;;;2.87;2.37;;;;;;;24.53;44.12;98322.00;6999899;28;20287;-84
2023/07/05 03:09:23;;;;;;;2.83;2.40;;;;;;;24.21;44.73;98319.34;6999486;28;20236;-84
2023/07/05 03:12:45;;;;;;;3.73;2.80;;;;;;;24.54;44.21;98329.13;7000327;28;20280;-83
2023/07/05 03:16:08;;;;;;;3.07;2.77;;;;;;;24.91;43.76;98330.88;6999991;28;20300;-83
2023/07/05 03:19:30;;;;;;;3.77;3.03;;;;;;;24.91;43.85;98328.97;7001652;28;20269;-83
2023/07/05 03:22:51;;;;;;;2.80;2.47;;;;;;;24.96;43.63;98317.00;6999346;28;20292;-83
2023/07/05 03:26:13;;;;;;;4.00;2.73;;;;;;;24.87;43.47;98318.84;6997830;28;20297;-83
2023/07/05 03:29:34;;;;;;;4.03;2.80;;;;;;;25.00;43.09;98315.22;6999004;28;20354;-84
2023/07/05 03:32:57;;;;;;;3.13;2.80;;;;;;;24.54;43.82;98251.16;7000101;28;20387;-83
2023/07/05 03:36:20;;;;;;;3.40;2.53;;;;;;;24.77;43.79;98317.09;6998551;28;20290;-84
2023/07/05 03:39:41;;;;;;;5.13;2.80;;;;;;;24.16;45.65;98324.94;6999322;28;20298;-84
2023/07/05 03:43:03;;;;;;;3.27;2.40;;;;;;;23.71;46.49;98294.63;7000098;28;20284;-84
2023/07/05 03:46:25;;;;;;;2.83;2.00;;;;;;;23.39;47.91;98338.63;7000552;28;20303;-83
2023/07/05 03:49:48;;;;;;;2.37;2.17;;;;;;;23.57;47.84;98333.13;7003800;28;20209;-83
2023/07/05 03:53:09;;;;;;;2.97;2.43;;;;;;;23.65;48.13;98328.88;6984656;28;20251;-84
2023/07/05 03:56:33;;;;;;;2.20;2.00;;;;;;;23.62;48.51;98323.94;6975501;28;20226;-82
2023/07/05 03:59:56;;;;;;;2.70;2.20;;;;;;;23.65;49.02;98337.91;6974228;28;20210;-83
2023/07/05 04:03:17;;;;;;;2.77;2.13;;;;;;;23.50;49.44;98329.94;6976560;28;20210;-84
2023/07/05 04:06:41;;;;;;;2.97;2.10;;;;;;;23.53;49.96;98334.00;6975171;28;20648;-82
2023/07/05 04:10:03;;;;;;;2.37;2.17;;;;;;;23.53;49.90;98329.31;6979476;28;20301;-82
2023/07/05 04:13:24;;;;;;;3.53;2.23;;;;;;;23.63;50.18;98326.41;6977098;28;20291;-84
2023/07/05 04:16:46;;;;;;;2.20;2.00;;;;;;;23.31;51.09;98315.34;6974726;28;20319;-84
2023/07/05 04:20:08;;;;;;;3.30;2.40;;;;;;;23.44;50.88;98331.13;6976229;28;20335;-84
2023/07/05 04:23:31;;;;;;;2.30;2.10;;;;;;;23.45;50.87;98338.25;7015279;28;20291;-85
2023/07/05 04:26:53;;;;;;;2.20;2.00;;;;;;;23.86;49.92;98322.72;7029788;28;20277;-82
2023/07/05 04:30:14;;;;;;;2.90;1.90;;;;;;;23.60;51.00;98334.44;7005511;28;20614;-81
2023/07/05 04:33:36;;;;;;;2.07;1.97;;;;;;;23.66;50.50;98325.78;7003971;28;20230;-82
2023/07/05 04:36:58;;;;;;;2.50;2.30;;;;;;;23.62;50.90;98316.53;7003673;28;20361;-82
2023/07/05 04:40:22;;;;;;;4.80;2.00;;;;;;;23.74;50.95;98307.78;7002760;28;20200;-82
2023/07/05 04:43:43;;;;;;;3.27;2.10;;;;;;;23.65;51.02;98309.59;7001623;28;20209;-82
2023/07/05 04:47:05;;;;;;;3.30;1.93;;;;;;;23.17;50.98;98231.97;7001460;28;20318;-82
2023/07/05 04:50:27;;;;;;;3.10;2.20;;;;;;;23.14;50.90;98210.50;7002013;28;20686;-82
2023/07/05 04:53:48;;;;;;;5.50;2.20;;;;;;;23.58;50.93;98279.69;7000543;28;20269;-81
2023/07/05 04:57:11;;;;;;;2.80;2.40;;;;;;;23.94;50.59;98313.78;7000995;28;20824;-81
2023/07/05 05:00:36;;;;;;;4.07;2.20;;;;;;;23.89;50.77;98319.38;7000641;28;20363;-81
2023/07/05 05:03:58;;;;;;;3.47;2.23;;;;;;;23.73;51.51;98319.91;7001235;28;20277;-81
2023/07/05 05:07:20;;;;;;;2.47;2.27;;;;;;;23.22;52.10;98270.38;7002330;28;20339;-81
2023/07/05 05:10:41;;;;;;;2.63;2.00;;;;;;;23.52;52.42;98305.66;7004931;28;20736;-82
2023/07/05 05:14:04;;;;;;;2.60;2.40;;;;;;;23.51;52.43;98304.03;7000877;28;20293;-81
2023/07/05 05:17:26;;;;;;;2.80;2.10;;;;;;;23.77;51.86;98283.22;7001378;28;20779;-81
2023/07/05 05:20:49;;;;;;;3.17;2.20;;;;;;;24.23;50.90;98261.97;7000659;28;20241;-82
2023/07/05 05:24:10;;;;;;;4.67;2.40;;;;;;;24.55;49.44;98267.38;6999002;28;20271;-81
2023/07/05 05:27:32;;;;;;;2.50;2.30;;;;;;;24.03;50.96;98273.41;6981217;28;20770;-82
2023/07/05 05:31:02;;;;;;;4.40;2.20;;;;;;;24.09;50.68;98283.22;7000696;28;20890;-81
2023/07/05 05:34:26;;;;;;;2.10;1.90;;;;;;;24.00;51.03;98282.25;7000369;28;20684;-81
2023/07/05 05:37:47;;;;;;;4.10;2.10;;;;;;;24.30;50.73;98283.63;6998931;28;20285;-81
2023/07/05 05:41:10;;;;;;;3.20;2.47;;;;;;;24.50;49.94;98289.56;7000694;28;20658;-81
2023/07/05 05:44:33;;;;;;;3.77;2.00;;;;;;;24.56;49.81;98296.59;6993105;28;20210;-82
2023/07/05 05:47:58;;;;;;;2.40;2.20;;;;;;;24.38;50.29;98294.75;6996603;28;20226;-82
2023/07/05 05:51:19;;;;;;;2.00;1.80;;;;;;;24.71;49.16;98310.06;6997446;28;20190;-83
2023/07/05 05:54:41;;;;;;;2.47;2.00;;;;;;;24.81;49.15;98309.03;6997826;28;20235;-82
2023/07/05 05:58:02;;;;;;;2.70;2.10;;;;;;;24.47;49.10;98281.88;6998047;28;20233;-82
2023/07/05 06:01:24;;;;;;;2.93;2.10;;;;;;;24.40;49.55;98303.53;6998833;28;20218;-82
2023/07/05 06:04:47;;;;;;;2.37;1.90;;;;;;;24.36;50.27;98299.75;6998850;28;20317;-82
2023/07/05 06:08:09;;;;;;;2.47;2.10;;;;;;;24.57;49.34;98303.75;6998211;28;20281;-83
2023/07/05 06:11:30;;;;;;;2.20;2.00;;;;;;;24.79;49.01;98314.84;7006940;28;20203;-85
2023/07/05 06:14:52;;;;;;;3.00;2.10;;;;;;;25.02;49.14;98299.19;7001271;28;20220;-85
2023/07/05 06:18:13;;;;;;;2.30;2.10;;;;;;;25.16;48.22;98295.28;7000374;28;20373;-89
2023/07/05 06:21:36;;;;;;;2.10;1.90;;;;;;;25.55;47.18;98309.25;7003676;28;20225;-86
2023/07/05 06:24:58;;;;;;;3.53;2.37;;;;;;;25.21;48.89;98313.66;6999112;28;20258;-87
2023/07/05 06:28:19;;;;;;;2.57;2.13;;;;;;;25.45;47.67;98328.84;6998076;28;20345;-89
2023/07/05 06:31:41;;;;;;;4.87;2.70;;;;;;;25.70;47.26;98319.09;6998141;28;20195;-86
2023/07/05 06:35:02;;;;;;;3.00;2.20;;;;;;;25.81;46.49;98342.59;6978206;28;20745;-86
2023/07/05 06:38:25;;;;;;;3.10;2.17;;;;;;;25.44;47.17;98335.50;6998265;28;20236;-85
2023/07/05 06:41:47;;;;;;;2.37;2.17;;;;;;;25.85;47.22;98341.66;6998315;28;20244;-85
2023/07/05 06:45:09;;;;;;;2.50;2.30;;;;;;;26.94;44.91;98358.31;6998287;28;20341;-86
2023/07/05 06:48:32;;;;;;;4.53;2.53;;;;;;;27.26;43.48;98352.41;6996921;28;20222;-86
2023/07/05 06:51:54;;;;;;;2.70;2.20;;;;;;;26.40;45.27;98362.34;6997441;28;20233;-86
2023/07/05 06:55:17;;;;;;;3.67;2.40;;;;;;;26.23;45.30;98362.25;6998911;28;20727;-85
2023/07/05 06:58:38;;;;;;;2.83;2.60;;;;;;;25.87;46.34;98368.94;7001819;28;20222;-84
2023/07/05 07:02:01;;;;;;;6.23;2.20;;;;;;;25.31;49.81;98390.75;6998013;28;20202;-83
2023/07/05 07:05:23;;;;;;;5.13;2.57;;;;;;;24.69;53.03;98392.28;6998191;28;20220;-83
2023/07/05 07:08:44;;;;;;;2.40;2.20;;;;;;;24.16;54.75;98415.84;6998315;28;20700;-84
2023/07/05 07:12:09;;;;;;;5.37;2.10;;;;;;;23.72;56.48;98423.69;6998470;28;20210;-83
2023/07/05 07:15:30;;;;;;;7.10;2.40;;;;;;;23.58;58.02;98414.56;6969565;28;20315;-84
2023/07/05 07:18:52;;;;;;;4.80;2.43;;;;;;;23.04;58.87;98350.94;6976966;28;20262;-85
2023/07/05 07:22:15;;;;;;;5.07;2.77;;;;;;;23.17;60.80;98440.16;6996653;28;20270;-84
2023/07/05 07:25:36;;;;;;;5.20;2.87;;;;;;;23.31;60.64;98450.16;7002022;28;20205;-83
2023/07/05 07:28:59;;;;;;;3.63;2.73;;;;;;;23.08;61.89;98444.66;7001260;28;20262;-84
2023/07/05 07:32:21;;;;;;;10.27;5.00;;;;;;;23.21;61.79;98454.97;7004247;28;20688;-84
2023/07/05 07:35:42;;;;;;;17.80;9.80;;;;;;;23.38;62.88;98466.31;7005538;28;20220;-84
2023/07/05 07:39:04;;;;;;;8.87;5.43;;;;;;;23.80;61.13;98460.75;7002317;28;20271;-81
2023/07/05 07:42:25;;;;;;;5.33;4.10;;;;;;;23.92;60.04;98439.13;7003011;28;20364;-86
2023/07/05 07:45:48;;;;;;;22.63;14.43;;;;;;;24.20;59.55;98440.88;7001388;28;20204;-88
2023/07/05 07:49:11;;;;;;;18.00;11.47;;;;;;;24.35;57.85;98444.16;7000891;28;20314;-83
2023/07/05 07:52:33;;;;;;;13.43;9.87;;;;;;;24.18;60.45;98434.84;7000910;28;20240;-83
2023/07/05 07:55:55;;;;;;;4.67;3.70;;;;;;;24.63;59.42;98464.38;6989169;28;20299;-84
2023/07/05 07:59:17;;;;;;;4.17;2.93;;;;;;;24.83;58.52;98464.81;7001031;28;20280;-86
2023/07/05 08:02:40;;;;;;;3.27;2.97;;;;;;;24.99;57.67;98462.56;7002918;28;20273;-84
2023/07/05 08:06:01;;;;;;;2.30;2.10;;;;;;;23.79;56.99;98462.69;7002900;28;20236;-84
2023/07/05 08:09:25;;;;;;;2.87;2.00;;;;;;;23.56;58.54;98471.84;7002116;28;20694;-85
2023/07/05 08:12:53;;;;;;;3.67;2.27;;;;;;;23.73;57.88;98461.13;6999809;28;20195;-85
2023/07/05 08:16:15;;;;;;;2.23;1.93;;;;;;;24.20;57.30;98480.22;7000342;28;20254;-89
2023/07/05 08:19:39;;;;;;;2.70;2.27;;;;;;;23.57;55.88;98401.91;7000945;28;20206;-86
2023/07/05 08:23:02;;;;;;;4.67;2.40;;;;;;;23.89;56.30;98479.09;7000609;28;20228;-87
2023/07/05 08:26:24;;;;;;;2.97;2.40;;;;;;;23.05;55.73;98470.81;6999926;28;20192;-86
2023/07/05 08:29:45;;;;;;;2.80;2.50;;;;;;;22.95;57.84;98512.19;7000756;28;20234;-86
2023/07/05 08:33:07;;;;;;;3.07;2.43;;;;;;;22.72;57.78;98512.97;7000127;28;20212;-86
2023/07/05 08:36:33;;;;;;;5.27;2.50;;;;;;;22.50;57.36;98463.19;7000185;28;20307;-86
2023/07/05 08:40:33;;;;;;;2.70;2.50;;;;;;;23.34;56.15;98542.31;6999797;28;20285;-86
2023/07/05 08:44:10;;;;;;;3.43;2.53;;;;;;;23.15;56.92;98544.97;6972849;28;20223;-86
2023/07/05 08:47:35;;;;;;;3.00;2.53;;;;;;;22.58;57.24;98542.25;6976311;28;20218;-86
2023/07/05 08:50:57;;;;;;;4.67;2.90;;;;;;;22.82;56.75;98556.03;7001042;28;20254;-86
2023/07/05 08:54:20;;;;;;;4.13;2.90;;;;;;;22.77;56.40;98554.16;7013884;28;20277;-87
2023/07/05 08:57:47;;;;;;;3.37;2.73;;;;;;;22.67;56.52;98551.50;7024604;28;20222;-85
2023/07/05 09:01:12;;;;;;;3.63;3.20;;;;;;;23.10;55.60;98556.03;7026445;28;20193;-87
2023/07/05 09:04:34;;;;;;;3.47;3.17;;;;;;;22.98;55.50;98574.88;7026483;28;20201;-90
2023/07/05 09:08:06;;;;;;;3.17;2.87;;;;;;;23.30;54.58;98577.03;7020244;28;20229;-87
2023/07/05 09:12:13;;;;;;;3.30;3.00;;;;;;;22.95;55.51;98580.94;6999252;28;20239;-86
2023/07/05 09:15:46;;;;;;;3.63;3.33;;;;;;;23.31;54.04;98573.16;7009590;28;20576;-84
2023/07/05 09:19:13;;;;;;;3.73;3.40;;;;;;;22.40;55.30;98504.47;7018555;28;20219;-84
2023/07/05 09:22:37;;;;;;;4.00;3.60;;;;;;;23.56;53.33;98573.69;7016307;28;20272;-85
2023/07/05 09:26:05;;;;;;;4.33;3.30;;;;;;;23.67;51.81;98550.41;7003177;28;20571;-85
2023/07/05 09:29:31;;;;;;;4.60;3.80;;;;;;;24.33;51.19;98570.44;6990533;28;20218;-84
2023/07/05 09:33:03;;;;;;;11.47;7.67;;;;;;;24.35;51.12;98572.88;6999257;28;20249;-84
2023/07/05 09:36:26;;;;;;;9.60;8.40;;;;;;;23.99;50.75;98580.84;6999381;28;20313;-85
2023/07/05 09:39:57;;;;;;;5.47;4.77;;;;;;;24.79;49.95;98573.28;6994746;28;20308;-83
2023/07/05 09:43:28;;;;;;;3.77;3.40;;;;;;;25.60;47.47;98581.72;6998845;28;20195;-84
2023/07/05 09:46:50;;;;;;;4.73;3.20;;;;;;;25.95;45.75;98576.25;6997618;28;20316;-84
2023/07/05 09:50:17;;;;;;;3.23;2.93;;;;;;;25.71;45.66;98530.66;6998796;28;20198;-85
2023/07/05 09:53:45;;;;;;;3.10;2.50;;;;;;;26.51;44.11;98573.03;6999122;28;20243;-84
2023/07/05 09:57:09;;;;;;;3.57;2.77;;;;;;;25.85;44.69;98564.59;7001763;28;20222;-85
2023/07/05 10:00:34;;;;;;;6.57;2.80;;;;;;;26.07;44.69;98559.16;6999311;28;20228;-84
2023/07/05 10:03:58;;;;;;;5.97;2.80;;;;;;;26.61;43.26;98550.69;6999223;28;20700;-85
2023/07/05 10:07:23;;;;;;;4.93;2.83;;;;;;;27.59;40.05;98531.66;6997101;28;20217;-85
2023/07/05 10:10:44;;;;;;;3.07;2.60;;;;;;;27.94;39.76;98514.00;6997640;28;20345;-87
2023/07/05 10:14:13;;;;;;;3.70;3.40;;;;;;;27.77;40.07;98557.47;6997631;28;20214;-86
2023/07/05 10:17:44;;;;;;;4.77;3.20;;;;;;;28.10;37.90;98554.00;6997270;28;20707;-85
2023/07/05 10:21:16;;;;;;;3.87;3.47;;;;;;;28.51;36.85;98536.88;6997872;28;20201;-79
2023/07/05 10:24:43;;;;;;;4.23;3.30;;;;;;;28.38;37.94;98552.53;6998752;28;20198;-80
2023/07/05 10:28:29;;;;;;;2.83;2.60;;;;;;;28.06;34.77;98544.69;6997269;28;20227;-89
2023/07/05 10:31:57;;;;;;;2.73;2.53;;;;;;;28.58;34.57;98517.78;6994568;28;20198;-87
2023/07/05 10:35:22;;;;;;;4.17;3.43;;;;;;;29.50;34.14;98532.56;6997158;28;20269;-87
2023/07/05 10:38:46;;;;;;;3.43;3.13;;;;;;;29.30;33.63;98524.16;6997027;28;20857;-83
2023/07/05 10:42:12;;;;;;;3.27;2.97;;;;;;;29.64;32.65;98538.72;6995582;28;20253;-87
2023/07/05 10:45:34;;;;;;;3.70;3.40;;;;;;;29.06;33.32;98458.09;6997566;28;20235;-86
2023/07/05 10:48:56;;;;;;;3.53;3.20;;;;;;;28.91;32.72;98533.53;6996268;28;20226;-86
2023/07/05 10:52:18;;;;;;;4.00;3.70;;;;;;;28.38;33.38;98541.44;6998223;28;20235;-86
2023/07/05 10:55:43;;;;;;;3.57;3.27;;;;;;;27.46;33.38;98534.56;7008278;28;20227;-85
2023/07/05 10:59:13;;;;;;;4.27;3.50;;;;;;;28.24;31.77;98545.53;7001057;28;20218;-86
2023/07/05 11:02:40;;;;;;;3.80;3.40;;;;;;;28.96;31.44;98546.47;6986655;28;20202;-86
2023/07/05 11:06:03;;;;;;;3.93;3.60;;;;;;;29.23;30.79;98560.78;6992972;28;20231;-86
2023/07/05 11:09:25;;;;;;;3.97;3.40;;;;;;;28.72;30.22;98558.06;7002263;28;20228;-86
2023/07/05 11:12:48;;;;;;;4.83;3.53;;;;;;;29.13;29.98;98552.78;7002146;28;20655;-86
2023/07/05 11:16:16;;;;;;;4.20;3.80;;;;;;;29.73;28.54;98549.78;7001252;28;20255;-86
2023/07/05 11:19:39;;;;;;;4.60;3.30;;;;;;;29.39;28.19;98542.41;7001870;28;20285;-86
2023/07/05 11:23:01;;;;;;;4.33;3.37;;;;;;;29.91;27.77;98551.31;7001790;28;20296;-86
2023/07/05 11:26:39;;;;;;;4.57;2.93;;;;;;;29.88;27.73;98549.19;7001357;28;20343;-84
2023/07/05 11:30:01;;;;;;;3.70;3.40;;;;;;;29.72;27.38;98557.31;7001707;28;20611;-88
2023/07/05 11:33:24;;;;;;;3.60;3.20;;;;;;;28.30;28.36;98469.34;7001369;28;20634;-87
2023/07/05 11:36:46;;;;;;;3.70;3.40;;;;;;;28.68;29.16;98554.34;7001147;28;20230;-86
2023/07/05 11:41:04;;;;;;;3.40;3.10;;;;;;;28.53;28.59;98549.28;7002428;28;20235;-87
2023/07/05 11:44:30;;;;;;;4.73;3.57;;;;;;;28.61;27.80;98548.44;6974538;28;20188;-87
2023/07/05 11:48:03;;;;;;;4.27;3.13;;;;;;;28.97;27.12;98539.78;6999023;28;20228;-86
2023/07/05 11:51:30;;;;;;;2.90;2.70;;;;;;;29.43;25.66;98539.78;7001889;28;20686;-86
2023/07/05 11:54:59;;;;;;;3.43;3.13;;;;;;;28.18;26.71;98569.81;7000991;28;20666;-86
2023/07/05 11:58:26;;;;;;;3.33;3.03;;;;;;;29.02;25.12;98570.94;6999262;28;20311;-85
2023/07/05 12:01:48;;;;;;;3.67;2.77;;;;;;;29.03;24.87;98561.50;6998678;28;20203;-85
2023/07/05 12:05:12;;;;;;;3.03;2.70;;;;;;;29.14;25.41;98565.53;7000632;28;20291;-86
2023/07/05 12:08:38;;;;;;;3.23;2.93;;;;;;;28.75;25.25;98565.75;6999184;28;20219;-86
2023/07/05 12:11:59;;;;;;;3.20;2.90;;;;;;;28.55;25.22;98573.94;6973496;28;20301;-86
2023/07/05 12:15:21;;;;;;;3.37;3.03;;;;;;;28.78;25.08;98567.84;6972362;28;20219;-86
2023/07/05 12:18:42;;;;;;;4.47;3.03;;;;;;;29.19;24.83;98570.91;6971695;28;20829;-86
2023/07/05 12:22:06;;;;;;;3.40;3.10;;;;;;;29.38;24.90;98571.31;6983131;28;20264;-86
2023/07/05 12:25:29;;;;;;;3.33;2.83;;;;;;;29.66;24.88;98561.44;6999884;28;20672;-86
2023/07/05 12:28:51;;;;;;;3.10;2.57;;;;;;;28.20;26.21;98564.75;6999947;28;20222;-85
2023/07/05 12:32:17;;;;;;;5.33;2.80;;;;;;;28.99;26.54;98568.00;6999621;28;20199;-86
2023/07/05 12:35:39;;;;;;;2.60;2.40;;;;;;;28.70;25.94;98565.94;6999455;28;20301;-86
2023/07/05 12:39:08;;;;;;;3.93;2.97;;;;;;;28.92;25.24;98553.81;6998822;28;20591;-85
2023/07/05 12:42:31;;;;;;;3.00;2.70;;;;;;;28.80;26.24;98575.88;6989854;28;20332;-86
2023/07/05 12:45:53;;;;;;;2.83;2.50;;;;;;;28.88;26.03;98569.47;6997731;28;20292;-86
2023/07/05 12:49:21;;;;;;;7.20;3.00;;;;;;;28.52;26.30;98564.31;7000456;28;20252;-86
2023/07/05 12:52:42;;;;;;;2.70;2.50;;;;;;;28.99;25.62;98554.13;7001096;28;20664;-85
2023/07/05 12:56:08;;;;;;;3.90;3.00;;;;;;;28.13;25.94;98572.72;7000776;28;20227;-87
2023/07/05 12:59:34;;;;;;;3.90;2.90;;;;;;;27.71;25.81;98578.16;7000371;28;20221;-84
2023/07/05 13:03:00;;;;;;;4.07;2.80;;;;;;;27.87;26.02;98571.06;6998394;28;20204;-85
2023/07/05 13:06:21;;;;;;;3.50;2.70;;;;;;;28.24;25.51;98576.81;7000232;28;20206;-84
2023/07/05 13:09:43;;;;;;;2.73;2.40;;;;;;;27.21;26.23;98541.66;7002461;28;20202;-84
2023/07/05 13:13:23;;;;;;;2.90;2.37;;;;;;;28.02;25.54;98557.53;7001143;28;20288;-85
2023/07/05 13:16:50;;;;;;;3.70;2.50;;;;;;;28.09;25.23;98543.22;7000077;28;20252;-85
2023/07/05 13:20:15;;;;;;;2.90;2.60;;;;;;;28.53;24.72;98540.97;7001159;28;20204;-85
2023/07/05 13:23:43;;;;;;;2.80;2.60;;;;;;;28.39;24.16;98570.00;7001586;28;20518;-84
2023/07/05 13:27:14;;;;;;;2.63;2.43;;;;;;;27.90;24.17;98554.59;6997747;28;20244;-85
2023/07/05 13:30:36;;;;;;;3.50;2.60;;;;;;;27.68;24.99;98543.59;7002544;28;20277;-86
2023/07/05 13:34:00;;;;;;;2.67;2.47;;;;;;;27.65;25.12;98562.84;7001081;28;20296;-85
2023/07/05 13:37:25;;;;;;;3.00;2.60;;;;;;;27.60;25.16;98538.84;7000193;28;20586;-85
2023/07/05 13:40:52;;;;;;;2.50;2.30;;;;;;;28.17;24.62;98568.19;7001563;28;20203;-85
2023/07/05 13:44:15;;;;;;;2.70;2.33;;;;;;;28.99;23.72;98563.28;7002025;28;20233;-85
2023/07/05 13:47:37;;;;;;;2.80;2.50;;;;;;;28.47;24.35;98575.56;7001440;28;20230;-85
2023/07/05 13:51:00;;;;;;;3.00;2.30;;;;;;;28.93;24.08;98564.59;6985427;28;20297;-85
2023/07/05 13:54:21;;;;;;;3.07;2.27;;;;;;;28.39;24.21;98564.47;7002431;28;20908;-85
2023/07/05 13:57:53;;;;;;;3.50;2.40;;;;;;;28.58;24.08;98567.72;6982465;28;20669;-86
2023/07/05 14:01:16;;;;;;;3.00;2.33;;;;;;;27.98;24.54;98570.44;6996937;28;20191;-86
2023/07/05 14:04:37;;;;;;;3.73;3.27;;;;;;;28.33;24.35;98574.06;6995771;28;20298;-86
2023/07/05 14:08:02;;;;;;;2.40;2.20;;;;;;;28.42;24.32;98558.28;6996472;28;20249;-85
2023/07/05 14:11:26;;;;;;;2.87;2.50;;;;;;;29.00;23.75;98559.38;6997228;28;20194;-85
2023/07/05 14:14:47;;;;;;;4.37;2.57;;;;;;;29.29;23.65;98551.09;6995631;28;20207;-85
2023/07/05 14:18:14;;;;;;;3.27;2.57;;;;;;;28.65;23.79;98546.66;6979143;28;20642;-86
2023/07/05 14:21:37;;;;;;;3.03;2.20;;;;;;;29.01;23.85;98572.09;7015900;28;20227;-86
2023/07/05 14:25:00;;;;;;;2.73;2.30;;;;;;;29.20;22.94;98566.97;6998310;28;20267;-86
2023/07/05 14:28:22;;;;;;;2.43;2.10;;;;;;;28.71;23.28;98569.53;6995645;28;20224;-86
2023/07/05 14:31:43;;;;;;;3.23;2.40;;;;;;;27.94;24.79;98571.38;6974327;28;20248;-86
2023/07/05 14:35:13;;;;;;;3.40;2.23;;;;;;;28.41;23.77;98573.25;6991950;28;20218;-86
2023/07/05 14:38:34;;;;;;;2.17;2.00;;;;;;;28.73;24.41;98570.78;6997829;28;20631;-86
2023/07/05 14:41:57;;;;;;;3.30;2.50;;;;;;;28.94;23.69;98548.72;6986418;28;20254;-86
2023/07/05 14:45:24;;;;;;;2.53;2.23;;;;;;;28.73;23.74;98550.56;6995177;28;20282;-86
2023/07/05 14:48:45;;;;;;;3.77;2.47;;;;;;;28.76;23.51;98569.34;6998597;28;20231;-86
2023/07/05 14:52:09;;;;;;;3.10;2.40;;;;;;;28.40;24.00;98564.16;6995186;28;20231;-86
2023/07/05 14:55:31;;;;;;;2.30;2.10;;;;;;;28.02;24.94;98546.47;6985357;28;20349;-86
2023/07/05 14:58:54;;;;;;;4.83;2.17;;;;;;;28.27;24.81;98573.41;6996536;28;20279;-87
2023/07/05 15:02:17;;;;;;;3.20;2.40;;;;;;;27.90;25.31;98582.31;6998166;28;20274;-85
2023/07/05 15:05:39;;;;;;;4.30;2.50;;;;;;;27.72;25.34;98591.69;6997644;28;20613;-85
2023/07/05 15:09:00;;;;;;;4.10;2.17;;;;;;;27.96;24.85;98484.00;6997087;28;20847;-86
2023/07/05 15:12:23;;;;;;;3.43;2.47;;;;;;;29.00;24.62;98569.63;6995015;28;20197;-85
2023/07/05 15:15:46;;;;;;;3.23;2.30;;;;;;;28.57;24.33;98572.47;6995983;28;20267;-86
2023/07/05 15:19:08;;;;;;;4.73;2.60;;;;;;;28.46;24.48;98559.22;6996192;28;20277;-86
2023/07/05 15:22:30;;;;;;;3.00;2.40;;;;;;;28.74;24.78;98578.00;6996638;28;20203;-86
2023/07/05 15:25:53;;;;;;;2.60;2.40;;;;;;;28.06;24.61;98508.63;6974349;28;20715;-85
2023/07/05 15:29:16;;;;;;;3.50;2.10;;;;;;;29.07;24.17;98568.00;6994730;28;20256;-83
2023/07/05 15:32:40;;;;;;;3.00;2.20;;;;;;;28.77;24.57;98579.31;6995956;28;20216;-86
2023/07/05 15:36:02;;;;;;;2.63;2.43;;;;;;;28.54;24.81;98567.56;6995216;28;20769;-85
2023/07/05 15:39:23;;;;;;;3.70;2.77;;;;;;;29.18;24.14;98562.94;6996703;28;20228;-85
2023/07/05 15:42:47;;;;;;;3.60;2.50;;;;;;;28.31;24.99;98579.13;6993954;28;20343;-86
2023/07/05 15:46:08;;;;;;;3.30;2.40;;;;;;;28.40;24.55;98571.63;6982811;28;20204;-86
2023/07/05 15:49:31;;;;;;;2.50;2.00;;;;;;;28.64;24.11;98574.72;7001911;28;20312;-86
2023/07/05 15:52:52;;;;;;;2.93;2.40;;;;;;;28.86;24.56;98572.59;7001711;28;20607;-86
2023/07/05 15:56:14;;;;;;;6.63;2.80;;;;;;;28.53;24.43;98587.31;6988857;28;20228;-84
2023/07/05 15:59:36;;;;;;;4.53;2.47;;;;;;;29.02;24.54;98562.63;7011914;28;20212;-86
2023/07/05 16:02:58;;;;;;;2.53;2.30;;;;;;;29.07;24.66;98581.09;7001818;28;20236;-86